Archival Weather

Heathrow

London, United Kingdom (EGLL)

Report from: Monday, July 18, 2022 5:50 AM BST
Current time: Tuesday, July 16, 2024 11:02 AM BST

Current weather – Weather history – Daily summaries
Weather forecast

Temperature19.0°C (66.2°F)
Dew point10.0°C (50.0°F)
Winds 1 kts (0.5 m/s, 1.2 mph) East (90°)
Visibility6.2 mi. (10 km)
Clouds Sky clear
Altimeter30.15 in.Hg (1021 mB)
Relative humidity56 %
Density altitude383 ft. (117 m)
Remarks Fully automated report
Corrected report
No clouds detected
No significant changes expected in the next two hours
Flight conditions Visual Meteorological Conditions
Raw dataCOR EGLL 180450Z AUTO 09001KT 9999 NCD 19/10 Q1021 NOSIG
An error has occurred. This application may no longer respond until reloaded. Reload 🗙